This is the latest recevied weather packets stored in our database for station/object K3BAK-13. If no packets are shown the sender has not sent any weather packets the latest 10 day(s).
| Time | Temp. | Humidity | Pressure | Rain* | Wind** | Luminosity | Snow |
|---|---|---|---|---|---|---|---|
| 1777436164 | 15° C | 89% | 1014.2 hPa | 0 mm | - | - | - |
| 1777435558 | 15.56° C | 88% | 1014.2 hPa | 0 mm | - | - | - |
| 1777434958 | 15.56° C | 88% | 1014.4 hPa | 0 mm | - | - | - |
| 1777433160 | 15.56° C | 86% | 1014.4 hPa | 0 mm | - | - | - |
| 1777431058 | 16.67° C | 84% | 1014.1 hPa | 0 mm | - | - | - |
| 1777428659 | 17.22° C | 81% | 1014.6 hPa | 0 mm | - | - | - |
| 1777428359 | 17.78° C | 80% | 1014.6 hPa | 0 mm | - | - | - |
| 1777425358 | 18.89° C | 76% | 1013.9 hPa | 0 mm | - | - | - |
| 1777424758 | 18.89° C | 76% | 1013.9 hPa | 0 mm | - | - | - |
| 1777424159 | 18.89° C | 75% | 1013.6 hPa | 0 mm | - | - | - |
| 1777422959 | 20° C | 71% | 1013.4 hPa | 0 mm | - | - | - |
| 1777418759 | 22.78° C | 63% | 1013.4 hPa | 0 mm | - | - | - |
| 1777418157 | 22.78° C | 62% | 1013.2 hPa | 0 mm | - | - | - |
| 1777416660 | 22.78° C | 65% | 1013.3 hPa | 0 mm | - | - | - |
| 1777416360 | 22.78° C | 66% | 1013.5 hPa | 0 mm | - | - | - |
| 1777416059 | 22.78° C | 67% | 1013.6 hPa | 0 mm | - | - | - |
| 1777415158 | 22.22° C | 69% | 1013.9 hPa | 0 mm | - | - | - |
| 1777414259 | 22.22° C | 69% | 1014 hPa | 0 mm | - | - | - |
| 1777413359 | 21.67° C | 68% | 1013.8 hPa | 0 mm | - | - | - |
| 1777413058 | 21.67° C | 69% | 1013.9 hPa | 0 mm | - | - | - |
| 1777412762 | 21.11° C | 71% | 1013.8 hPa | 0 mm | - | - | - |
| 1777412158 | 21.67° C | 72% | 1013.8 hPa | 0 mm | - | - | - |
| 1777410961 | 20.56° C | 74% | 1013.9 hPa | 0 mm | - | - | - |
| 1777410062 | 21.11° C | 72% | 1013.8 hPa | 0 mm | - | - | - |
| 1777407658 | 20.56° C | 76% | 1014.3 hPa | 0 mm | - | - | - |
* Rain latest hour (hover to see other rain measurements)
** Current wind speed in m/s (hover to see current wind gust speed)